Flight Track Log - Related Links

Times and Time Zones

All times are in EDT time to prevent confusion due to time zone crossing. See the CTL62 flight status page for this flight to view local times or setup timezone preferences in your user account.

Time Position Orientation Groundspeed Altitude Reporting Facility
EDT Latitude Longitude Course Direction KTS MPH feet Rate Location/Type
Fri 01:52:50 AM 42.1333 -87.8833 132° Southeast 112 129 1,600  Level Chicago TRACON
Fri 01:53:50 AM 42.1500 -87.8500 56° Northeast 118 136 2,700 1,000 Climbing Chicago TRACON
Fri 01:54:50 AM 42.1500 -87.8000 90° East 130 150 3,600 800 Climbing Chicago TRACON
Fri 01:55:50 AM 42.1500 -87.7500 90° East 127 146 4,300 667 Climbing Chicago TRACON
Fri 01:57:05 AM 42.1281 -87.7122 128° Southeast 124 143 5,100 667 Climbing Chicago Center
Fri 01:58:00 AM 42.0080 -87.6370 132° Southeast  Level FlightAware Approximate
Fri 01:58:05 AM 42.1108 -87.6692 118° Southeast 127 146 5,800  Level Chicago Center
Fri 01:59:05 AM 42.0931 -87.6286 121° Southeast 127 146 6,600 650 Climbing Chicago Center
Fri 02:00:05 AM 42.0742 -87.5903 124° Southeast 125 144 7,100 550 Climbing Chicago Center
Fri 02:01:05 AM 42.0564 -87.5500 121° Southeast 126 145 7,700 595 Climbing Chicago Center
Fri 02:02:06 AM 42.0383 -87.5114 122° Southeast 122 140 8,300 595 Climbing Chicago Center
Fri 02:03:06 AM 42.0214 -87.4708 119° Southeast 124 143 8,900 350 Climbing Chicago Center
Fri 02:04:06 AM 42.0028 -87.4264 119° Southeast 133 153 9,000 100 Climbing Chicago Center
Fri 02:05:06 AM 41.9817 -87.3761 119° Southeast 152 175 9,100 50 Climbing Chicago Center
Fri 02:06:06 AM 41.9589 -87.3236 120° Southeast 162 186 9,100  Level Chicago Center
Fri 02:07:06 AM 41.9383 -87.2711 118° Southeast 160 184 9,100 -50 Level Chicago Center
Fri 02:08:07 AM 41.9156 -87.2183 120° Southeast 163 188 9,000  Descending Chicago Center
Fri 02:09:07 AM 41.8933 -87.1650 119° Southeast 164 189 9,100 50 Climbing Chicago Center
Fri 02:10:07 AM 41.8717 -87.1133 119° Southeast 161 185 9,100  Level Chicago Center
Fri 02:11:07 AM 41.8458 -87.0600 123° Southeast 167 192 9,100  Level Chicago Center
Fri 02:12:07 AM 41.8222 -87.0089 122° Southeast 163 188 9,100  Level Chicago Center
Fri 02:13:07 AM 41.7969 -86.9597 125° Southeast 160 184 9,100  Level Chicago Center
Fri 02:14:08 AM 41.7753 -86.9044 118° Southeast 166 191 9,100  Level Chicago Center
Fri 02:15:08 AM 41.7511 -86.8531 122° Southeast 163 188 9,100  Level Chicago Center
Fri 02:16:08 AM 41.7292 -86.7994 119° Southeast 165 190 9,100  Level Chicago Center
Fri 02:17:08 AM 41.7075 -86.7453 118° Southeast 166 191 9,100  Level Chicago Center
Fri 02:18:08 AM 41.6781 -86.6883 125° Southeast 166 191 9,100  Level Chicago Center
Fri 02:19:08 AM 41.6550 -86.6342 120° Southeast 167 192 9,100  Level Chicago Center
Fri 02:20:08 AM 41.6306 -86.5844 123° Southeast 162 186 9,100  Level Chicago Center
Fri 02:21:09 AM 41.6067 -86.5350 123° Southeast 161 185 9,100  Level Chicago Center
Fri 02:22:09 AM 41.5822 -86.4847 123° Southeast 161 185 9,100  Level Chicago Center
Fri 02:23:09 AM 41.5600 -86.4314 119° Southeast 164 189 9,100  Level Chicago Center
Fri 02:24:09 AM 41.5383 -86.3786 119° Southeast 163 188 9,100  Level Chicago Center
Fri 02:25:09 AM 41.5161 -86.3250 119° Southeast 164 189 9,100  Level Chicago Center
Fri 02:26:09 AM 41.4897 -86.2758 126° Southeast 163 188 9,100  Level Chicago Center
Fri 02:27:09 AM 41.4644 -86.2269 125° Southeast 162 186 9,100  Level Chicago Center
Fri 02:28:09 AM 41.4406 -86.1758 122° Southeast 162 186 9,100  Level Chicago Center
Fri 02:29:10 AM 41.4186 -86.1233 119° Southeast 163 188 9,100  Level Chicago Center
Fri 02:30:10 AM 41.3956 -86.0697 120° Southeast 166 191 9,100  Level Chicago Center
Fri 02:31:10 AM 41.3742 -86.0172 118° Southeast 164 189 9,100  Level Chicago Center
Fri 02:32:10 AM 41.3525 -85.9686 121° Southeast 157 181 9,100  Level Chicago Center
Fri 02:33:10 AM 41.3308 -85.9186 120° Southeast 157 181 9,100  Level Chicago Center
Fri 02:34:10 AM 41.3097 -85.8678 119° Southeast 158 182 9,100  Level Chicago Center
Fri 02:35:10 AM 41.2867 -85.8197 123° Southeast 157 181 9,100  Level Chicago Center
Fri 02:36:10 AM 41.2636 -85.7706 122° Southeast 157 181 9,100  Level Chicago Center
Fri 02:37:10 AM 41.2414 -85.7183 119° Southeast 163 188 9,100 -33 Level Chicago Center
Fri 02:39:11 AM 41.1978 -85.6144 119° Southeast 166 191 9,000 -33 Descending Chicago Center
Fri 02:40:11 AM 41.1761 -85.5617 119° Southeast 165 190 9,000  Level Chicago Center
Fri 02:41:11 AM 41.1531 -85.5103 121° Southeast 164 189 9,000  Level Chicago Center
Fri 02:42:11 AM 41.1311 -85.4586 119° Southeast 162 186 9,000  Level Chicago Center
Fri 02:43:11 AM 41.1086 -85.4083 121° Southeast 161 185 9,000  Level Chicago Center
Fri 02:44:11 AM 41.0872 -85.3578 119° Southeast 158 182 9,000  Level Chicago Center
Fri 02:45:11 AM 41.0644 -85.3083 121° Southeast 158 182 9,000  Level Chicago Center
Fri 02:46:12 AM 41.0433 -85.2581 119° Southeast 157 181 9,000  Level Chicago Center
Fri 02:47:12 AM 41.0222 -85.2075 119° Southeast 157 181 9,000  Level Chicago Center
Fri 02:48:12 AM 41.0019 -85.1594 119° Southeast 152 175 9,000  Level Chicago Center
Fri 02:49:12 AM 40.9806 -85.1117 121° Southeast 151 174 9,000  Level Chicago Center
Fri 02:50:12 AM 40.9583 -85.0631 121° Southeast 154 177 9,000  Level Chicago Center
Fri 02:51:12 AM 40.9364 -85.0131 120° Southeast 156 180 9,000  Level Chicago Center
Fri 02:52:12 AM 40.9156 -84.9639 119° Southeast 155 178 9,000  Level Chicago Center
Fri 02:53:13 AM 40.8917 -84.9161 123° Southeast 156 180 9,000  Level Chicago Center
Fri 02:54:13 AM 40.8739 -84.8636 114° Southeast 155 178 9,000  Level Chicago Center
Fri 02:55:13 AM 40.8522 -84.8161 121° Southeast 153 176 9,000  Level Chicago Center
Fri 02:56:13 AM 40.8286 -84.7675 123° Southeast 156 180 9,000  Level Chicago Center
Fri 02:57:13 AM 40.8072 -84.7175 119° Southeast 157 181 9,000  Level Chicago Center
Fri 02:58:13 AM 40.7858 -84.6678 120° Southeast 156 180 9,000  Level Chicago Center
Fri 02:59:13 AM 40.7633 -84.6181 121° Southeast 157 181 9,000  Level Chicago Center
Fri 03:00:14 AM 40.7411 -84.5689 121° Southeast 156 180 9,000  Level Chicago Center
Fri 03:01:14 AM 40.7206 -84.5208 119° Southeast 154 177 9,000  Level Chicago Center
Fri 03:02:14 AM 40.6989 -84.4719 120° Southeast 154 177 9,000  Level Chicago Center
Fri 03:03:14 AM 40.6778 -84.4228 120° Southeast 154 177 9,000 52 Level Chicago Center
Fri 03:04:09 AM 40.6536 -84.3683 120° Southeast 156 180 9,100 52 Climbing Indianapolis Center
Fri 03:05:10 AM 40.6303 -84.3183 122° Southeast 159 183 9,100  Level Indianapolis Center
Fri 03:06:11 AM 40.6092 -84.2686 119° Southeast 158 182 9,100  Level Indianapolis Center
Fri 03:07:11 AM 40.5858 -84.2186 122° Southeast 158 182 9,100  Level Indianapolis Center
Fri 03:08:12 AM 40.5644 -84.1692 120° Southeast 158 182 9,100  Level Indianapolis Center
Fri 03:09:12 AM 40.5433 -84.1197 119° Southeast 157 181 9,100  Level Indianapolis Center
Fri 03:10:13 AM 40.5197 -84.0700 122° Southeast 159 183 9,100 -49 Level Indianapolis Center
Fri 03:11:14 AM 40.4967 -84.0147 119° Southeast 159 183 9,000 -198 Descending Indianapolis Center
Fri 03:12:14 AM 40.4736 -83.9622 120° Southeast 170 196 8,700 -446 Descending Indianapolis Center
Fri 03:13:15 AM 40.4483 -83.9097 122° Southeast 177 204 8,100 -545 Descending Indianapolis Center
Fri 03:14:15 AM 40.4211 -83.8514 121° Southeast 178 205 7,600 -545 Descending Indianapolis Center
Fri 03:15:16 AM 40.3961 -83.7933 119° Southeast 179 206 7,000 -492 Descending Indianapolis Center
Fri 03:16:17 AM 40.3711 -83.7381 121° Southeast 176 203 6,600 -446 Descending Indianapolis Center
Fri 03:17:17 AM 40.3478 -83.6858 120° Southeast 172 198 6,100 -496 Descending Indianapolis Center
Fri 03:18:18 AM 40.3225 -83.6306 121° Southeast 172 198 5,600 -496 Descending Indianapolis Center
Fri 03:19:18 AM 40.2972 -83.5756 121° Southeast 170 196 5,100 -446 Descending Indianapolis Center
Fri 03:20:19 AM 40.2739 -83.5206 119° Southeast 171 197 4,700 -393 Descending Indianapolis Center
Fri 03:21:20 AM 40.2506 -83.4658 119° Southeast 169 194 4,300 -417 Descending Indianapolis Center
Fri 03:22:14 AM 40.2289 -83.4194 121° Southeast 170 196 3,900 -574 Descending Indianapolis Center
Fri 03:23:15 AM 40.2075 -83.3678 118° Southeast 170 196 3,200 -689 Descending Indianapolis Center
Fri 03:25:00 AM 40.1729 -83.2917 121° Southeast  Level FlightAware Approximate
Fri 03:32:00 AM 40.0798 -83.0732 123° Southeast  Level Estimated
Fri 03:33:00 AM 40.0798 -83.0732 123° Southeast  Level Estimated

Login

Don't have an account? Register now (free) for customized features, flight alerts, and more!